Time;durP1;ratioP1;P1;durP2;ratioP2;P2;SDS_P1;SDS_P2;PMS_P1;PMS_P2;Temp;Humidity;BMP_temperature;BMP_pressure;BME280_temperature;BME280_humidity;BME280_pressure;Samples;Min_cycle;Max_cycle;Signal;HPM_P1;HPM_P2
2024/03/26 00:00:13;;;;;;;2.53;0.65;;;9.50;99.90;;;8.77;100.00;98633.81;4200342;28;20020;-78
2024/03/26 00:02:13;;;;;;;1.65;0.50;;;9.50;99.90;;;8.77;100.00;98634.63;4200479;28;20029;-78
2024/03/26 00:04:14;;;;;;;1.90;0.90;;;9.40;99.90;;;8.74;100.00;98635.03;4218017;28;20434;-78
2024/03/26 00:06:15;;;;;;;1.52;0.60;;;9.40;99.90;;;8.69;100.00;98628.75;4218307;28;20126;-78
2024/03/26 00:08:17;;;;;;;1.92;0.40;;;9.40;99.90;;;8.67;100.00;98633.34;4183582;28;20037;-78
2024/03/26 00:10:18;;;;;;;1.20;0.55;;;9.30;99.90;;;8.65;100.00;98636.19;4218194;28;20031;-79
2024/03/26 00:12:19;;;;;;;3.55;0.65;;;9.30;99.90;;;8.58;100.00;98626.66;4200331;28;20089;-78
2024/03/26 00:14:20;;;;;;;1.40;0.70;;;9.30;99.90;;;8.60;100.00;98633.31;4218068;28;20391;-78
2024/03/26 00:16:21;;;;;;;4.97;0.88;;;9.30;99.90;;;8.58;100.00;98627.47;4218125;28;20441;-79
2024/03/26 00:18:22;;;;;;;2.25;0.55;;;9.30;99.90;;;8.61;100.00;98629.69;4200535;28;20020;-78
2024/03/26 00:20:23;;;;;;;2.65;0.50;;;9.20;99.90;;;8.63;100.00;98630.31;4221375;28;20027;-78
2024/03/26 00:22:25;;;;;;;2.63;0.80;;;9.30;99.90;;;8.61;100.00;98634.97;4221161;28;20028;-78
2024/03/26 00:24:26;;;;;;;2.20;0.60;;;9.30;99.90;;;8.60;100.00;98629.91;4221472;28;20039;-78
2024/03/26 00:26:27;;;;;;;3.53;0.93;;;9.30;99.90;;;8.61;100.00;98634.97;4203488;28;20025;-78
2024/03/26 00:28:28;;;;;;;3.08;0.80;;;9.30;99.90;;;8.55;100.00;98622.59;4221354;28;20028;-78
2024/03/26 00:30:28;;;;;;;4.03;1.02;;;9.30;99.90;;;8.57;100.00;98628.47;4221149;28;20395;-78
2024/03/26 00:32:29;;;;;;;2.33;0.73;;;9.20;99.90;;;8.57;100.00;98625.03;4203258;28;20025;-78
2024/03/26 00:34:30;;;;;;;3.00;0.90;;;9.20;99.90;;;8.54;100.00;98628.06;4221008;28;20031;-78
2024/03/26 00:36:31;;;;;;;1.63;0.70;;;9.20;99.90;;;8.52;100.00;98628.25;4220940;28;20074;-78
2024/03/26 00:38:32;;;;;;;3.35;0.93;;;9.20;99.90;;;8.51;100.00;98637.13;4202977;28;20558;-78
2024/03/26 00:40:33;;;;;;;3.05;1.17;;;9.20;99.90;;;8.50;100.00;98639.94;4221119;28;20032;-78
2024/03/26 00:42:35;;;;;;;2.67;1.30;;;9.10;99.90;;;8.49;100.00;98641.75;4203205;28;20055;-78
2024/03/26 00:44:36;;;;;;;2.17;1.35;;;9.10;99.90;;;8.46;100.00;98623.75;4221069;28;20101;-78
2024/03/26 00:46:37;;;;;;;4.22;2.30;;;9.10;99.90;;;8.44;100.00;98631.03;4220977;28;20437;-78
2024/03/26 00:48:38;;;;;;;4.25;2.15;;;9.10;99.90;;;8.44;100.00;98636.28;4229923;28;20077;-78
2024/03/26 00:50:39;;;;;;;3.75;1.90;;;9.10;99.90;;;8.45;100.00;98631.84;4203017;28;20111;-78
2024/03/26 00:52:40;;;;;;;4.28;2.33;;;9.10;99.90;;;8.43;100.00;98632.03;4202975;28;20082;-78
2024/03/26 00:54:41;;;;;;;2.63;1.75;;;9.10;99.90;;;8.48;100.00;98636.72;4220862;28;20398;-79
2024/03/26 00:56:41;;;;;;;4.32;2.17;;;9.10;99.90;;;8.48;100.00;98636.72;4220800;28;20032;-78
2024/03/26 00:58:42;;;;;;;2.47;1.40;;;9.10;99.90;;;8.49;100.00;98635.69;4202939;28;20020;-78
2024/03/26 01:00:43;;;;;;;2.25;1.50;;;9.10;99.90;;;8.48;100.00;98636.72;4220702;28;20024;-78
2024/03/26 01:02:44;;;;;;;4.20;1.80;;;9.10;99.90;;;8.48;100.00;98642.78;4202786;28;20032;-78
2024/03/26 01:04:45;;;;;;;2.40;1.73;;;9.10;99.90;;;8.49;100.00;98639.13;4220504;28;20467;-78
2024/03/26 01:06:45;;;;;;;2.67;1.40;;;9.10;99.90;;;8.48;100.00;98632.28;4220730;28;20027;-79
2024/03/26 01:08:46;;;;;;;3.45;1.00;;;9.10;99.90;;;8.48;100.00;98634.09;4220671;28;20471;-78
2024/03/26 01:10:48;;;;;;;1.83;1.08;;;9.10;99.90;;;8.47;100.00;98619.31;4220569;28;20493;-78
2024/03/26 01:12:50;;;;;;;2.65;0.88;;;9.10;99.90;;;8.47;100.00;98617.50;4220439;28;20044;-79
2024/03/26 01:14:51;;;;;;;7.13;0.95;;;9.10;99.90;;;8.47;100.00;98624.56;4220802;28;20509;-78
2024/03/26 01:16:51;;;;;;;1.33;0.40;;;9.10;99.90;;;8.45;100.00;98627.41;4220364;28;20035;-78
2024/03/26 01:18:52;;;;;;;2.42;0.80;;;9.10;99.90;;;8.43;100.00;98618.88;4220262;28;20023;-78
2024/03/26 01:20:53;;;;;;;3.65;0.90;;;9.10;99.90;;;8.43;100.00;98613.63;4218439;28;20031;-79
2024/03/26 01:22:54;;;;;;;2.10;0.70;;;9.10;99.90;;;8.44;100.00;98614.44;4191003;28;20033;-79
2024/03/26 01:24:55;;;;;;;2.70;0.55;;;9.10;99.90;;;8.39;100.00;98612.44;4220440;28;20028;-78
2024/03/26 01:26:56;;;;;;;2.63;0.95;;;9.10;99.90;;;8.41;100.00;98605.16;4202409;28;20020;-79
2024/03/26 01:28:56;;;;;;;1.30;0.70;;;9.10;99.90;;;8.43;100.00;98600.50;4201969;28;20032;-78
2024/03/26 01:30:57;;;;;;;2.35;0.70;;;9.10;99.90;;;8.42;100.00;98611.22;4202325;28;20024;-78
2024/03/26 01:32:58;;;;;;;1.60;1.02;;;9.10;99.90;;;8.42;100.00;98614.66;4219468;28;20032;-78
2024/03/26 01:34:59;;;;;;;1.35;0.70;;;9.10;99.90;;;8.41;100.00;98607.78;4220212;28;20074;-78
2024/03/26 01:37:00;;;;;;;0.90;0.52;;;9.10;99.90;;;8.39;100.00;98603.72;4202106;28;20028;-79
2024/03/26 01:39:00;;;;;;;1.15;0.50;;;9.10;99.90;;;8.40;100.00;98598.25;4202103;28;20033;-78
2024/03/26 01:41:01;;;;;;;4.20;0.68;;;9.10;99.90;;;8.40;100.00;98598.25;4202168;28;20495;-79
2024/03/26 01:43:02;;;;;;;1.15;0.52;;;9.10;99.90;;;8.37;100.00;98587.31;4220096;28;20107;-79
2024/03/26 01:45:04;;;;;;;3.10;0.45;;;9.10;99.90;;;8.37;100.00;98590.78;4219943;28;20094;-78
2024/03/26 01:47:05;;;;;;;3.70;0.77;;;9.00;99.90;;;8.32;100.00;98587.94;4220095;28;20031;-79
2024/03/26 01:50:07;;;;;;;4.45;1.55;;;9.00;99.90;;;8.31;100.00;98596.78;4185283;28;20021;-78
2024/03/26 01:52:08;;;;;;;1.30;0.93;;;9.00;99.90;;;8.28;100.00;98603.25;4208377;28;20024;-78
2024/03/26 01:54:10;;;;;;;0.65;0.45;;;9.00;99.90;;;8.25;100.00;98589.66;4201658;28;20099;-79
2024/03/26 01:56:12;;;;;;;2.67;0.60;;;8.90;99.90;;;8.28;100.00;98594.56;4202112;28;20032;-79
2024/03/26 01:58:14;;;;;;;4.70;0.90;;;8.90;99.90;;;8.24;100.00;98588.06;4219725;28;20074;-78
2024/03/26 02:00:19;;;;;;;1.70;0.70;;;8.90;99.90;;;8.26;100.00;98576.34;4201896;28;20033;-79
2024/03/26 02:05:36;;;;;;;0.85;0.52;;;8.90;99.90;;;8.20;100.00;98592.06;4219723;28;20444;-78
2024/03/26 02:07:38;;;;;;;1.75;0.52;;;8.90;99.90;;;8.17;100.00;98574.06;4219729;28;20063;-79
2024/03/26 02:09:39;;;;;;;3.45;1.63;;;8.90;99.90;;;8.17;100.00;98581.94;4184928;28;20048;-79
2024/03/26 02:11:40;;;;;;;3.55;1.90;;;8.80;99.90;;;8.09;100.00;98561.09;4208552;28;20437;-79
2024/03/26 02:13:45;;;;;;;4.45;1.33;;;8.80;99.90;;;8.10;100.00;98575.81;4219614;28;20028;-79
2024/03/26 02:15:46;;;;;;;3.08;0.93;;;8.80;99.90;;;8.09;100.00;98572.41;4201595;28;20033;-78
2024/03/26 02:17:46;;;;;;;1.92;0.90;;;8.80;99.90;;;8.09;100.00;98571.59;4219199;28;20032;-79
2024/03/26 02:19:47;;;;;;;2.30;0.80;;;8.80;99.90;;;8.12;100.00;98565.97;4219305;28;20019;-79
2024/03/26 02:21:49;;;;;;;2.30;0.90;;;8.80;99.90;;;8.11;100.00;98570.41;4219479;28;20037;-78
2024/03/26 02:23:49;;;;;;;2.05;0.63;;;8.80;99.90;;;8.13;100.00;98564.94;4201442;28;20069;-79
2024/03/26 02:25:50;;;;;;;1.58;0.80;;;8.80;99.90;;;8.14;100.00;98572.66;4219472;28;20024;-78
2024/03/26 02:27:51;;;;;;;2.05;0.82;;;8.80;99.90;;;8.16;100.00;98575.88;4201490;28;20025;-78
2024/03/26 02:29:52;;;;;;;2.38;0.80;;;8.80;99.90;;;8.17;100.00;98572.25;4219383;28;20092;-78
2024/03/26 02:31:53;;;;;;;1.33;0.70;;;8.80;99.90;;;8.17;100.00;98576.69;4219320;28;20021;-78
2024/03/26 02:33:54;;;;;;;3.63;0.80;;;8.80;99.90;;;8.18;100.00;98573.06;4201010;28;20028;-78
2024/03/26 02:35:54;;;;;;;2.45;0.93;;;8.80;99.90;;;8.19;100.00;98585.19;4200962;28;20481;-79
2024/03/26 02:37:55;;;;;;;3.83;1.05;;;8.90;99.90;;;8.20;100.00;98578.94;4201294;28;20489;-79
2024/03/26 02:39:56;;;;;;;5.13;1.08;;;8.90;99.90;;;8.19;100.00;98574.66;4219201;28;20042;-78
2024/03/26 02:41:58;;;;;;;2.33;1.10;;;8.90;99.90;;;8.20;100.00;98578.94;4218406;28;20024;-79
2024/03/26 02:43:59;;;;;;;1.88;0.80;;;8.90;99.90;;;8.21;100.00;98583.19;4200958;28;20107;-78
2024/03/26 02:46:00;;;;;;;1.38;0.80;;;8.90;99.90;;;8.19;100.00;98579.94;4201127;28;20020;-79
2024/03/26 02:48:03;;;;;;;1.55;0.80;;;8.80;99.90;;;8.19;100.00;98585.19;4201092;28;20027;-79
2024/03/26 02:50:05;;;;;;;2.53;0.95;;;8.80;99.90;;;8.15;100.00;98570.84;4218882;28;20023;-79
2024/03/26 02:52:06;;;;;;;1.02;0.60;;;8.80;99.90;;;8.11;100.00;98572.22;4201141;28;20074;-78
2024/03/26 02:54:06;;;;;;;1.35;0.60;;;8.80;99.90;;;8.10;100.00;98573.19;4207594;28;20499;-78
2024/03/26 02:56:07;;;;;;;1.13;0.65;;;8.80;99.90;;;8.09;100.00;98572.41;4224631;28;20089;-78
2024/03/26 02:58:08;;;;;;;1.63;0.70;;;8.80;99.90;;;8.09;100.00;98577.66;4200963;28;20036;-78
2024/03/26 03:00:10;;;;;;;1.15;0.70;;;8.80;99.90;;;8.05;100.00;98565.09;4218879;28;20030;-79
2024/03/26 03:02:11;;;;;;;1.15;0.63;;;8.70;99.90;;;8.04;100.00;98566.09;4200167;28;20089;-78
2024/03/26 03:04:12;;;;;;;1.38;0.70;;;8.70;99.90;;;8.00;100.00;98555.19;4218635;28;20476;-78
2024/03/26 03:06:13;;;;;;;1.13;0.65;;;8.70;99.90;;;8.00;100.00;98557.81;4200748;28;20032;-78
2024/03/26 03:08:13;;;;;;;3.50;0.85;;;8.70;99.90;;;7.99;100.00;98552.75;4218963;28;20062;-78
2024/03/26 03:10:14;;;;;;;1.10;0.70;;;8.60;99.90;;;7.96;100.00;98542.63;4218787;28;20020;-78
2024/03/26 03:12:15;;;;;;;2.65;0.60;;;8.60;99.90;;;7.98;100.00;98544.06;4218801;28;20165;-78
2024/03/26 03:14:16;;;;;;;2.90;0.95;;;8.60;99.90;;;7.95;100.00;98536.56;4218635;28;20043;-79
2024/03/26 03:16:18;;;;;;;1.25;0.50;;;8.60;99.90;;;7.99;100.00;98547.50;4200768;28;20475;-78
2024/03/26 03:18:19;;;;;;;4.15;0.70;;;8.60;99.90;;;7.95;100.00;98538.38;4218370;28;20036;-79
2024/03/26 03:20:20;;;;;;;1.83;0.80;;;8.60;99.90;;;8.00;100.00;98543.88;4200817;28;20531;-79
2024/03/26 03:22:21;;;;;;;2.17;0.80;;;8.60;99.90;;;8.02;100.00;98541.88;4217208;28;20028;-78
2024/03/26 03:24:22;;;;;;;2.53;0.80;;;8.60;99.90;;;7.98;100.00;98530.94;4205823;28;20024;-78
2024/03/26 03:26:23;;;;;;;2.63;0.63;;;8.60;99.90;;;8.02;100.00;98539.22;4218713;28;20399;-78
2024/03/26 03:28:24;;;;;;;1.38;0.70;;;8.70;99.90;;;7.99;100.00;98535.19;4218617;28;20102;-78
2024/03/26 03:30:25;;;;;;;1.83;0.70;;;8.70;99.90;;;8.00;100.00;98523.69;4200594;28;20021;-78
2024/03/26 03:32:26;;;;;;;1.77;1.00;;;8.70;99.90;;;7.99;100.00;98531.75;4187325;28;20083;-78
2024/03/26 03:34:27;;;;;;;1.65;0.70;;;8.60;99.90;;;7.98;100.00;98530.13;4200350;28;20107;-78
2024/03/26 03:36:28;;;;;;;2.47;0.75;;;8.60;99.90;;;7.95;100.00;98528.69;4183672;28;20037;-79
2024/03/26 03:38:29;;;;;;;2.80;0.90;;;8.60;99.90;;;7.93;100.00;98530.72;4218090;28;20036;-78
2024/03/26 03:40:29;;;;;;;3.28;1.20;;;8.60;99.90;;;7.90;100.00;98527.66;4218374;28;20043;-78
2024/03/26 03:42:31;;;;;;;1.42;1.13;;;8.60;99.90;;;7.88;100.00;98519.97;4200596;28;20080;-78
2024/03/26 03:44:35;;;;;;;2.10;0.88;;;8.60;99.90;;;7.89;100.00;98524.22;4200569;28;20029;-78
2024/03/26 03:46:36;;;;;;;;;;;8.60;99.90;;;7.86;100.00;98521.16;4201265;28;20029;-78
2024/03/26 03:48:36;;;;;;;2.17;0.90;;;8.60;99.90;;;7.89;100.00;98518.16;4218236;28;19965;-78
2024/03/26 03:50:37;;;;;;;4.25;1.08;;;8.60;99.90;;;7.87;100.00;98514.91;4218518;28;20035;-78
2024/03/26 03:52:38;;;;;;;3.75;1.10;;;8.60;99.90;;;7.90;100.00;98511.91;4201549;28;20032;-78
2024/03/26 03:54:39;;;;;;;2.15;0.98;;;8.60;99.90;;;7.90;100.00;98519.78;4221754;28;20065;-78
2024/03/26 03:56:40;;;;;;;2.17;0.70;;;8.60;99.90;;;7.91;100.00;98521.41;4221619;28;20067;-78
2024/03/26 03:58:41;;;;;;;1.92;0.90;;;8.50;99.90;;;7.90;100.00;98514.53;4203940;28;20407;-78
2024/03/26 04:00:42;;;;;;;2.33;0.77;;;8.60;99.90;;;7.88;100.00;98521.78;4203783;28;20431;-78
2024/03/26 04:02:42;;;;;;;2.58;0.82;;;8.60;99.90;;;7.90;100.00;98523.22;4221768;28;20414;-79
2024/03/26 04:04:43;;;;;;;3.22;0.90;;;8.60;99.90;;;7.88;100.00;98521.78;4221347;28;20028;-79
2024/03/26 04:06:45;;;;;;;1.48;0.73;;;8.60;99.90;;;7.89;100.00;98523.41;4203856;28;20507;-78
2024/03/26 04:08:45;;;;;;;1.67;1.35;;;8.50;99.90;;;7.90;100.00;98535.53;4203715;28;20040;-78
2024/03/26 04:10:46;;;;;;;3.67;0.70;;;8.60;99.90;;;7.90;100.00;98527.66;4221577;28;20073;-78
2024/03/26 04:12:47;;;;;;;5.38;1.40;;;8.50;99.90;;;7.89;100.00;98531.28;4218780;28;20028;-77
2024/03/26 04:14:48;;;;;;;1.88;0.80;;;8.60;99.90;;;7.89;100.00;98529.47;4219309;28;20479;-77
2024/03/26 04:16:49;;;;;;;3.15;0.70;;;8.60;99.90;;;7.93;100.00;98528.09;4221134;28;20115;-76
2024/03/26 04:18:50;;;;;;;2.55;1.05;;;8.60;99.90;;;7.93;100.00;98516.75;4202250;28;20020;-76
2024/03/26 04:20:51;;;;;;;3.30;1.20;;;8.60;99.90;;;7.94;100.00;98523.66;4202816;28;20021;-76
2024/03/26 04:22:52;;;;;;;4.07;1.10;;;8.60;99.90;;;7.89;100.00;98515.53;4221190;28;20077;-76
2024/03/26 04:24:53;;;;;;;2.40;0.80;;;8.60;99.90;;;7.91;100.00;98529.28;4202949;28;20074;-76
2024/03/26 04:26:54;;;;;;;1.38;0.70;;;8.60;99.90;;;7.89;100.00;98521.59;4220984;28;20032;-77
2024/03/26 04:28:55;;;;;;;1.67;0.88;;;8.60;99.90;;;7.88;100.00;98516.53;4202448;28;20043;-77
2024/03/26 04:30:56;;;;;;;4.63;1.38;;;8.60;99.90;;;7.88;100.00;98519.97;4220747;28;20027;-77
2024/03/26 04:32:57;;;;;;;1.70;0.73;;;8.50;99.90;;;7.88;100.00;98519.16;4220816;28;20020;-77
2024/03/26 04:34:58;;;;;;;2.45;0.70;;;8.50;99.90;;;7.84;100.00;98516.13;4220729;28;20024;-77
2024/03/26 04:37:02;;;;;;;2.45;1.00;;;8.50;99.90;;;7.88;100.00;98519.16;4202561;28;20065;-77
2024/03/26 04:39:03;;;;;;;2.40;0.80;;;8.50;99.90;;;7.85;100.00;98519.56;4220993;28;20111;-78
2024/03/26 04:41:04;;;;;;;2.35;0.80;;;8.50;99.90;;;7.87;100.00;98522.78;4203100;28;20036;-78
2024/03/26 04:43:06;;;;;;;2.38;0.80;;;8.50;99.90;;;7.86;100.00;98527.22;4221127;28;20024;-78
2024/03/26 04:45:07;;;;;;;1.67;1.00;;;8.50;99.90;;;7.85;100.00;98517.75;4220946;28;20020;-78
2024/03/26 04:47:08;;;;;;;3.05;0.80;;;8.50;99.90;;;7.87;100.00;98518.34;4203129;28;20028;-78
2024/03/26 04:49:09;;;;;;;3.10;1.08;;;8.50;99.90;;;7.89;100.00;98518.97;4227338;28;20034;-78
2024/03/26 04:51:09;;;;;;;2.38;0.90;;;8.50;99.90;;;7.92;100.00;98517.75;4220913;28;20036;-78
2024/03/26 04:53:10;;;;;;;2.25;0.70;;;8.60;99.90;;;7.92;100.00;98520.38;4220845;28;20024;-78
2024/03/26 04:55:11;;;;;;;1.30;0.80;;;8.60;99.90;;;7.93;100.00;98519.38;4220971;28;20544;-78
2024/03/26 04:57:12;;;;;;;2.58;0.80;;;8.60;99.90;;;7.93;100.00;98516.75;4220824;28;20107;-78
2024/03/26 04:59:13;;;;;;;1.95;0.90;;;8.60;99.90;;;7.96;100.00;98513.75;4220842;28;20023;-78
2024/03/26 05:01:14;;;;;;;0.90;0.50;;;8.60;99.90;;;7.97;100.00;98512.75;4220448;28;20445;-78
2024/03/26 05:03:15;;;;;;;3.63;0.90;;;8.60;99.90;;;7.99;100.00;98505.50;4220757;28;20030;-77
2024/03/26 05:05:15;;;;;;;3.45;1.08;;;8.60;99.90;;;7.98;100.00;98499.44;4220039;28;20024;-78
2024/03/26 05:07:16;;;;;;;2.38;0.95;;;8.60;99.90;;;7.98;100.00;98496.00;4220755;28;20063;-78
2024/03/26 05:09:17;;;;;;;1.63;0.77;;;8.60;99.90;;;7.97;100.00;98502.25;4220847;28;20024;-78
2024/03/26 05:11:18;;;;;;;2.17;0.50;;;8.60;99.90;;;7.95;100.00;98504.25;4216474;28;20051;-78
2024/03/26 05:13:19;;;;;;;1.60;0.60;;;8.60;99.90;;;7.95;100.00;98504.25;4220607;28;20028;-78
2024/03/26 05:15:20;;;;;;;3.42;1.10;;;8.60;99.90;;;7.93;100.00;98503.63;4220603;28;20028;-78
2024/03/26 05:17:21;;;;;;;1.35;0.50;;;8.60;99.90;;;7.89;100.00;98497.97;4220326;28;20475;-78
2024/03/26 05:19:22;;;;;;;2.35;0.70;;;8.60;99.90;;;7.88;100.00;98493.75;4220199;28;20515;-78
2024/03/26 05:21:23;;;;;;;1.73;0.60;;;8.60;99.90;;;7.85;100.00;98506.44;4202397;28;20111;-78
2024/03/26 05:23:23;;;;;;;1.88;0.68;;;8.50;99.90;;;7.82;100.00;98505.78;4220502;28;20028;-78
2024/03/26 05:25:24;;;;;;;1.75;0.50;;;8.50;99.90;;;7.79;100.00;98508.81;4220400;28;20035;-78
2024/03/26 05:27:25;;;;;;;2.03;0.60;;;8.50;99.90;;;7.74;100.00;98505.13;4202294;28;20399;-78
2024/03/26 05:29:26;;;;;;;2.17;0.80;;;8.50;99.90;;;7.72;100.00;98507.16;4202667;28;20021;-78
2024/03/26 05:31:27;;;;;;;1.95;0.70;;;8.40;99.90;;;7.69;100.00;98508.34;4202316;28;20029;-78
2024/03/26 05:33:27;;;;;;;1.30;0.60;;;8.40;99.90;;;7.65;100.00;98512.34;4202123;28;20028;-78
2024/03/26 05:35:30;;;;;;;1.83;0.80;;;8.30;99.90;;;7.63;100.00;98508.31;4220007;28;20052;-78
2024/03/26 05:37:31;;;;;;;1.70;0.63;;;8.30;99.90;;;7.64;100.00;98513.38;4220089;28;20495;-78
2024/03/26 05:39:31;;;;;;;1.00;0.50;;;8.30;99.90;;;7.65;100.00;98528.09;4220224;28;20053;-77
2024/03/26 05:41:32;;;;;;;1.33;0.70;;;8.30;99.90;;;7.64;100.00;98521.25;4220091;28;20050;-78
2024/03/26 05:43:33;;;;;;;3.90;1.17;;;8.30;99.90;;;7.58;100.00;98516.75;4202053;28;20471;-78
2024/03/26 05:45:36;;;;;;;2.33;0.70;;;8.30;99.90;;;7.63;100.00;98521.41;4202178;28;20507;-78
2024/03/26 05:47:37;;;;;;;1.50;0.80;;;8.30;99.90;;;7.60;100.00;98522.63;4219794;28;20081;-78
2024/03/26 05:49:38;;;;;;;2.67;1.20;;;8.30;99.90;;;7.60;100.00;98512.13;4201914;28;20024;-78
2024/03/26 05:51:39;;;;;;;1.00;0.60;;;8.30;99.90;;;7.62;100.00;98519.78;4201857;28;20087;-78
2024/03/26 05:53:40;;;;;;;1.65;0.88;;;8.30;99.90;;;7.59;100.00;98515.75;4220289;28;20085;-78
2024/03/26 05:55:42;;;;;;;1.00;0.63;;;8.30;99.90;;;7.61;100.00;98511.13;4219961;28;20040;-77
2024/03/26 05:57:42;;;;;;;3.00;0.70;;;8.30;99.90;;;7.60;100.00;98517.38;4201939;28;20025;-78
2024/03/26 05:59:43;;;;;;;1.98;0.70;;;8.30;99.90;;;7.60;100.00;98517.38;4219678;28;20077;-78
2024/03/26 06:01:44;;;;;;;2.10;0.80;;;8.30;99.90;;;7.60;100.00;98514.75;4201397;28;20021;-78
2024/03/26 06:03:45;;;;;;;4.88;1.20;;;8.30;99.90;;;7.57;100.00;98512.50;4201701;28;20571;-78
2024/03/26 06:05:46;;;;;;;2.15;0.70;;;8.30;99.90;;;7.59;100.00;98518.38;4201880;28;20017;-78
2024/03/26 06:07:47;;;;;;;1.20;0.50;;;8.20;99.90;;;7.53;100.00;98505.19;4219761;28;20028;-78
2024/03/26 06:09:47;;;;;;;2.47;0.68;;;8.30;99.90;;;7.55;100.00;98505.84;4201869;28;20070;-78
2024/03/26 06:11:48;;;;;;;1.60;0.80;;;8.30;99.90;;;7.56;100.00;98516.13;4201671;28;20025;-78
2024/03/26 06:13:49;;;;;;;1.67;0.90;;;8.20;99.90;;;7.54;100.00;98505.03;4219665;28;20024;-77
2024/03/26 06:15:50;;;;;;;3.50;0.77;;;8.20;99.90;;;7.54;100.00;98509.44;4218494;28;20032;-78
2024/03/26 06:17:51;;;;;;;2.67;0.88;;;8.20;99.90;;;7.55;100.00;98506.66;4219090;28;20078;-78
2024/03/26 06:19:51;;;;;;;2.00;0.75;;;8.20;99.90;;;7.55;100.00;98504.03;4219625;28;20024;-78
2024/03/26 06:21:52;;;;;;;2.50;1.00;;;8.20;99.90;;;7.54;100.00;98512.06;4209203;28;20017;-78
2024/03/26 06:23:53;;;;;;;2.97;0.82;;;8.20;99.90;;;7.52;100.00;98501.78;4216182;28;20020;-78
2024/03/26 06:25:54;;;;;;;2.38;1.00;;;8.20;99.90;;;7.52;100.00;98503.59;4201517;28;20487;-78
2024/03/26 06:27:55;;;;;;;2.05;0.90;;;8.20;99.90;;;7.52;100.00;98500.97;4219549;28;20602;-77
2024/03/26 06:29:56;;;;;;;2.97;1.10;;;8.20;99.90;;;7.52;100.00;98506.22;4201466;28;20563;-77
2024/03/26 06:31:56;;;;;;;1.88;0.90;;;8.20;99.90;;;7.53;100.00;98506.00;4219303;28;20028;-77
2024/03/26 06:33:57;;;;;;;2.40;0.80;;;8.20;99.90;;;7.56;100.00;98508.25;4219151;28;20024;-78
2024/03/26 06:35:58;;;;;;;2.75;0.90;;;8.20;99.90;;;7.61;100.00;98502.44;4201068;28;20049;-78
2024/03/26 06:37:59;;;;;;;1.58;0.63;;;8.30;99.90;;;7.67;100.00;98504.31;4201146;28;20462;-78
2024/03/26 06:40:00;;;;;;;2.13;0.70;;;8.30;99.90;;;7.72;100.00;98496.66;4219184;28;20400;-78
2024/03/26 06:42:00;;;;;;;3.78;0.82;;;8.30;99.90;;;7.79;100.00;98495.69;4201037;28;20419;-78
2024/03/26 06:44:01;;;;;;;2.10;0.98;;;8.40;99.90;;;7.87;100.00;98499.16;4207753;28;20028;-78
2024/03/26 06:46:04;;;;;;;2.13;0.60;;;8.50;99.90;;;7.93;100.00;98495.75;4201176;28;20025;-78
2024/03/26 06:48:05;;;;;;;1.70;0.65;;;8.60;99.90;;;8.04;100.00;98506.53;4184337;28;20104;-78
2024/03/26 06:50:06;;;;;;;1.48;0.70;;;8.60;99.90;;;8.05;100.00;98488.97;4202714;28;20013;-78
2024/03/26 06:52:08;;;;;;;3.20;0.70;;;8.70;99.90;;;8.20;100.00;98503.59;4207229;28;20111;-78
2024/03/26 06:54:09;;;;;;;1.15;0.80;;;8.80;99.90;;;8.27;100.00;98501.00;4219034;28;20016;-77
2024/03/26 06:56:10;;;;;;;1.20;0.77;;;8.80;99.90;;;8.28;100.00;98500.00;4218987;28;20020;-78
2024/03/26 06:58:11;;;;;;;0.60;0.40;;;8.90;99.90;;;8.38;100.00;98505.72;4218862;28;20372;-77
2024/03/26 07:00:14;;;;;;;2.58;1.08;;;8.90;99.90;;;8.44;100.00;98502.31;4218894;28;20024;-78
2024/03/26 07:02:15;;;;;;;2.67;1.05;;;9.10;99.90;;;8.50;100.00;98505.94;4218975;28;20534;-78
2024/03/26 07:04:16;;;;;;;4.32;1.35;;;9.10;99.90;;;8.53;100.00;98502.94;4218778;28;20542;-78
2024/03/26 07:06:16;;;;;;;2.95;1.20;;;9.20;99.90;;;8.61;100.00;98511.44;4218767;28;20035;-78
2024/03/26 07:08:17;;;;;;;2.22;1.10;;;9.20;99.90;;;8.66;100.00;98509.03;4218872;28;20024;-78
2024/03/26 07:10:18;;;;;;;1.13;0.70;;;9.30;99.90;;;8.72;100.00;98508.22;4218803;28;20027;-78
2024/03/26 07:12:19;;;;;;;1.67;0.90;;;9.40;99.90;;;8.77;100.00;98511.09;4218810;28;20454;-78
2024/03/26 07:14:20;;;;;;;1.08;0.68;;;9.40;99.90;;;8.83;100.00;98504.22;4200680;28;20035;-78
2024/03/26 07:16:21;;;;;;;2.30;0.90;;;9.50;99.90;;;8.89;100.00;98509.50;4218793;28;20517;-78
2024/03/26 07:18:22;;;;;;;1.52;0.80;;;9.50;99.90;;;8.94;100.00;98521.22;4218425;28;20126;-78
2024/03/26 07:20:23;;;;;;;3.10;1.33;;;9.50;99.90;;;8.97;100.00;98511.13;4218665;28;20032;-78
2024/03/26 07:22:24;;;;;;;1.55;0.75;;;9.50;99.90;;;9.03;100.00;98514.75;4204993;28;20031;-78
2024/03/26 07:24:25;;;;;;;4.45;1.10;;;9.60;99.90;;;9.07;100.00;98516.00;4218691;28;20039;-78
2024/03/26 07:26:25;;;;;;;2.80;0.80;;;9.60;99.90;;;9.10;100.00;98513.78;4218698;28;20028;-78
2024/03/26 07:28:26;;;;;;;1.33;0.80;;;9.60;99.90;;;9.12;100.00;98510.94;4200240;28;20029;-78
2024/03/26 07:30:27;;;;;;;1.17;0.73;;;9.70;99.90;;;9.14;100.00;98506.31;4217237;28;20499;-77
2024/03/26 07:32:28;;;;;;;1.40;0.85;;;9.70;99.90;;;9.10;100.00;98505.06;4200738;28;20036;-78
2024/03/26 07:34:29;;;;;;;5.30;1.88;;;9.70;99.90;;;9.16;100.00;98514.78;4200514;28;20032;-78
2024/03/26 07:36:30;;;;;;;3.25;1.50;;;9.70;99.90;;;9.21;100.00;98510.53;4200353;28;20052;-78
2024/03/26 07:38:32;;;;;;;3.75;1.33;;;9.70;99.90;;;9.25;100.00;98511.78;4200594;28;20503;-78
2024/03/26 07:40:35;;;;;;;2.30;1.15;;;9.80;99.90;;;9.35;100.00;98509.53;4218487;28;20073;-78
2024/03/26 07:42:36;;;;;;;5.85;1.25;;;9.90;99.90;;;9.45;100.00;98509.13;4218658;28;20024;-78
2024/03/26 07:44:36;;;;;;;6.22;1.40;;;9.90;99.90;;;9.57;100.00;98506.69;4218526;28;20109;-78
2024/03/26 07:46:37;;;;;;;5.05;1.67;;;10.00;99.90;;;9.69;100.00;98510.31;4218052;28;20395;-78
2024/03/26 07:48:38;;;;;;;3.85;1.17;;;10.10;99.90;;;9.81;100.00;98506.06;4200403;28;20035;-78
2024/03/26 07:50:39;;;;;;;2.78;1.17;;;10.20;99.90;;;9.90;100.00;98504.81;4200566;28;20029;-78
2024/03/26 07:52:40;;;;;;;2.60;0.98;;;10.40;99.90;;;9.98;100.00;98500.13;4218390;28;20036;-78
2024/03/26 07:54:40;;;;;;;3.13;1.30;;;10.50;99.90;;;10.03;100.00;98492.41;4200460;28;20033;-78
2024/03/26 07:56:41;;;;;;;3.75;1.25;;;10.60;99.90;;;10.19;100.00;98500.91;4217874;28;20483;-78
2024/03/26 07:58:42;;;;;;;2.85;1.60;;;10.80;99.90;;;10.30;100.00;98509.00;4218162;28;20020;-77
2024/03/26 08:00:43;;;;;;;2.83;1.13;;;10.90;99.90;;;10.41;100.00;98504.91;4218357;28;20020;-78
2024/03/26 08:02:44;;;;;;;2.90;0.98;;;11.00;99.90;;;10.48;100.00;98506.47;4218071;28;20027;-78
2024/03/26 08:04:46;;;;;;;4.82;0.93;;;11.00;99.90;;;10.57;100.00;98506.25;4218404;28;20043;-76
2024/03/26 08:06:47;;;;;;;3.22;0.88;;;11.10;99.90;;;10.57;100.00;98496.53;4218371;28;20020;-75
2024/03/26 08:08:50;;;;;;;2.58;0.70;;;11.10;99.90;;;10.55;100.00;98501.16;4218313;28;20073;-76
2024/03/26 08:10:51;;;;;;;5.03;0.90;;;11.10;99.90;;;10.57;100.00;98502.56;4200418;28;20028;-76
2024/03/26 08:12:51;;;;;;;3.55;0.90;;;11.20;99.90;;;10.56;100.00;98508.06;4200834;28;20114;-76
2024/03/26 08:14:53;;;;;;;1.38;0.68;;;11.10;99.90;;;10.54;100.00;98503.00;4218118;28;20025;-77
2024/03/26 08:16:54;;;;;;;3.25;1.10;;;11.20;99.90;;;10.60;100.00;98500.56;4200239;28;20523;-78
2024/03/26 08:18:55;;;;;;;3.05;0.80;;;11.20;99.90;;;10.63;100.00;98502.78;4217860;28;20032;-78
2024/03/26 08:20:56;;;;;;;2.25;0.80;;;11.20;99.90;;;10.67;100.00;98494.22;4217916;28;20020;-78
2024/03/26 08:22:58;;;;;;;4.72;1.00;;;11.30;99.90;;;10.78;100.00;98505.94;4218206;28;20063;-78
2024/03/26 08:24:59;;;;;;;4.18;0.88;;;11.30;99.90;;;10.79;100.00;98513.63;4200253;28;20117;-78
2024/03/26 08:27:00;;;;;;;4.63;1.23;;;11.40;99.90;;;10.74;100.00;98505.53;4218020;28;20043;-78
2024/03/26 08:29:01;;;;;;;3.33;1.15;;;11.40;99.90;;;10.75;100.00;98514.28;4200086;28;20029;-78
2024/03/26 08:31:03;;;;;;;5.28;1.58;;;11.40;99.90;;;10.74;100.00;98510.00;4218055;28;20047;-78
2024/03/26 08:33:07;;;;;;;5.07;1.20;;;11.40;99.90;;;10.74;100.00;98505.53;4200109;28;20082;-78
2024/03/26 08:35:08;;;;;;;;;;;11.50;99.90;;;10.76;100.00;98513.22;4200219;28;20033;-77
2024/03/26 08:37:09;;;;;;;5.57;1.33;;;11.50;99.90;;;10.78;100.00;98504.09;4217860;28;19916;-77